createdAt,value
2023-05-20T00:02:14.667Z,13.65
2023-05-20T00:04:43.965Z,13.57
2023-05-20T00:07:12.391Z,13.48
2023-05-20T00:09:40.848Z,13.39
2023-05-20T00:12:09.503Z,13.36
2023-05-20T00:14:38.042Z,13.29
2023-05-20T00:17:07.976Z,13.25
2023-05-20T00:19:36.394Z,13.20
2023-05-20T00:22:04.887Z,13.15
2023-05-20T00:24:33.246Z,13.15
2023-05-20T00:27:02.737Z,13.17
2023-05-20T00:29:31.181Z,13.17
2023-05-20T00:32:00.516Z,13.14
2023-05-20T00:34:30.270Z,13.08
2023-05-20T00:36:59.925Z,13.06
2023-05-20T00:39:29.703Z,13.08
2023-05-20T00:42:00.473Z,13.11
2023-05-20T00:44:28.905Z,13.02
2023-05-20T00:46:58.102Z,12.94
2023-05-20T00:49:26.631Z,12.90
2023-05-20T00:51:56.629Z,12.86
2023-05-20T00:54:25.070Z,12.86
2023-05-20T00:56:53.920Z,12.87
2023-05-20T00:59:22.355Z,12.92
2023-05-20T01:01:50.944Z,12.95
2023-05-20T01:04:19.516Z,12.90
2023-05-20T01:06:48.049Z,12.85
2023-05-20T01:09:17.835Z,12.83
2023-05-20T01:11:53.007Z,12.81
2023-05-20T01:14:24.553Z,12.82
2023-05-20T01:16:54.933Z,12.85
2023-05-20T01:19:30.162Z,12.82
2023-05-20T01:22:01.346Z,12.81
2023-05-20T01:24:31.143Z,12.82
2023-05-20T01:27:00.877Z,12.84
2023-05-20T01:29:29.294Z,12.86
2023-05-20T01:32:01.133Z,12.84
2023-05-20T01:34:29.814Z,12.80
2023-05-20T01:37:00.956Z,12.81
2023-05-20T01:39:31.940Z,12.82
2023-05-20T01:42:02.830Z,12.78
2023-05-20T01:44:31.662Z,12.77
2023-05-20T01:47:01.730Z,12.74
2023-05-20T01:49:30.441Z,12.67
2023-05-20T01:52:02.411Z,12.58
2023-05-20T01:54:32.376Z,12.53
2023-05-20T01:57:01.474Z,12.52
2023-05-20T01:59:30.003Z,12.45
2023-05-20T02:02:01.799Z,12.45
2023-05-20T02:04:30.478Z,12.45
2023-05-20T02:07:00.207Z,12.47
2023-05-20T02:09:29.254Z,12.51
2023-05-20T02:11:59.871Z,12.57
2023-05-20T02:14:28.276Z,12.58
2023-05-20T02:17:04.519Z,12.56
2023-05-20T02:19:32.949Z,12.56
2023-05-20T02:22:01.592Z,12.50
2023-05-20T02:24:30.016Z,12.46
2023-05-20T02:27:01.792Z,12.39
2023-05-20T02:29:30.325Z,12.31
2023-05-20T02:32:01.102Z,12.26
2023-05-20T02:34:30.441Z,12.19
2023-05-20T02:37:00.062Z,12.05
2023-05-20T02:39:29.521Z,11.93
2023-05-20T02:42:00.439Z,11.81
2023-05-20T02:44:28.795Z,11.80
2023-05-20T02:46:57.360Z,11.79
2023-05-20T02:49:25.749Z,11.78
2023-05-20T02:51:54.143Z,11.80
2023-05-20T02:54:22.751Z,11.84
2023-05-20T02:56:51.137Z,11.89
2023-05-20T02:59:20.874Z,11.90
2023-05-20T03:01:49.505Z,11.91
2023-05-20T03:04:19.277Z,11.96
2023-05-20T03:06:47.829Z,11.96
2023-05-20T03:09:16.469Z,11.91
2023-05-20T03:11:44.869Z,11.83
2023-05-20T03:14:21.483Z,11.74
2023-05-20T03:16:49.867Z,11.69
2023-05-20T03:19:18.240Z,11.68
2023-05-20T03:21:46.664Z,11.74
2023-05-20T03:24:15.060Z,11.79
2023-05-20T03:26:43.936Z,11.77
2023-05-20T03:29:13.805Z,11.68
2023-05-20T03:31:43.652Z,11.54
2023-05-20T03:34:12.109Z,11.59
2023-05-20T03:36:40.603Z,11.68
2023-05-20T03:39:08.998Z,11.70
2023-05-20T03:41:38.020Z,11.74
2023-05-20T03:44:06.712Z,11.78
2023-05-20T03:46:35.145Z,11.79
2023-05-20T03:49:05.872Z,11.79
2023-05-20T03:51:34.351Z,11.75
2023-05-20T03:54:03.220Z,11.71
2023-05-20T03:56:31.630Z,11.69
2023-05-20T03:59:01.975Z,11.76
2023-05-20T04:01:30.473Z,11.85
2023-05-20T04:03:58.865Z,11.96
2023-05-20T04:06:28.666Z,12.03
2023-05-20T04:08:57.175Z,12.10
2023-05-20T04:11:25.947Z,12.15
2023-05-20T04:13:54.785Z,12.09
2023-05-20T04:16:23.184Z,12.11
2023-05-20T04:18:52.644Z,12.14
2023-05-20T04:21:21.086Z,12.20
2023-05-20T04:23:50.817Z,12.19
2023-05-20T04:26:19.233Z,12.20
2023-05-20T04:28:49.726Z,12.21
2023-05-20T04:31:18.643Z,12.26
2023-05-20T04:33:47.188Z,12.25
2023-05-20T04:36:16.841Z,12.28
2023-05-20T04:38:45.509Z,12.25
2023-05-20T04:41:16.011Z,12.10
2023-05-20T04:43:45.849Z,12.04
2023-05-20T04:46:14.299Z,12.04
2023-05-20T04:48:43.877Z,12.09
2023-05-20T04:51:12.423Z,12.19
2023-05-20T04:53:40.850Z,12.30
2023-05-20T04:56:09.317Z,12.38
2023-05-20T04:58:39.666Z,12.46
2023-05-20T05:01:08.169Z,12.52
2023-05-20T05:03:36.978Z,12.58
2023-05-20T05:06:05.466Z,12.67
2023-05-20T05:08:33.872Z,12.71
2023-05-20T05:11:06.232Z,12.73
2023-05-20T05:13:34.702Z,12.76
2023-05-20T05:16:05.597Z,12.82
2023-05-20T05:18:34.042Z,12.86
2023-05-20T05:21:04.636Z,12.90
2023-05-20T05:23:33.192Z,12.90
2023-05-20T05:26:04.874Z,12.93
2023-05-20T05:28:33.369Z,12.96
2023-05-20T05:31:03.669Z,12.99
2023-05-20T05:33:33.488Z,13.06
2023-05-20T05:36:04.268Z,13.12
2023-05-20T05:38:32.673Z,13.17
2023-05-20T05:41:01.882Z,13.20
2023-05-20T05:43:30.348Z,13.27
2023-05-20T05:45:58.739Z,13.27
2023-05-20T05:48:27.352Z,13.29
2023-05-20T05:50:57.154Z,13.37
2023-05-20T05:53:25.742Z,13.45
2023-05-20T05:55:54.180Z,13.54
2023-05-20T05:58:22.825Z,13.63
2023-05-20T06:00:53.002Z,13.69
2023-05-20T06:03:21.547Z,13.72
2023-05-20T06:05:50.136Z,13.73
2023-05-20T06:08:19.912Z,13.80
2023-05-20T06:10:50.034Z,13.87
2023-05-20T06:13:19.182Z,13.86
2023-05-20T06:15:51.235Z,13.86
2023-05-20T06:18:19.830Z,13.87
2023-05-20T06:20:48.262Z,13.89
2023-05-20T06:23:16.688Z,13.90
2023-05-20T06:25:46.459Z,13.91
2023-05-20T06:28:14.844Z,13.95
2023-05-20T06:30:43.600Z,13.98
2023-05-20T06:33:12.029Z,13.95
2023-05-20T06:35:40.648Z,13.99
2023-05-20T06:38:09.150Z,14.07
2023-05-20T06:40:37.770Z,14.13
2023-05-20T06:43:07.540Z,14.18
2023-05-20T06:45:36.150Z,14.23
2023-05-20T06:48:04.960Z,14.25
2023-05-20T06:50:33.339Z,14.26
2023-05-20T06:53:03.388Z,14.26
2023-05-20T06:55:32.034Z,14.24
2023-05-20T06:58:00.552Z,14.24
2023-05-20T07:00:31.210Z,14.26
2023-05-20T07:02:59.676Z,14.29
2023-05-20T07:05:28.988Z,14.34
2023-05-20T07:07:57.483Z,14.38
2023-05-20T07:10:26.285Z,14.41
2023-05-20T07:12:54.731Z,14.43
2023-05-20T07:15:23.131Z,14.44
2023-05-20T07:17:53.258Z,14.50
2023-05-20T07:20:21.904Z,14.57
2023-05-20T07:23:00.979Z,14.57
2023-05-20T07:25:29.377Z,14.61
2023-05-20T07:27:58.062Z,14.67
2023-05-20T07:30:26.694Z,14.63
2023-05-20T07:32:56.840Z,14.70
2023-05-20T07:35:25.654Z,14.80
2023-05-20T07:37:54.185Z,14.89
2023-05-20T07:40:23.126Z,14.93
2023-05-20T07:42:51.531Z,15.00
2023-05-20T07:45:20.033Z,15.00
2023-05-20T07:47:48.485Z,14.89
2023-05-20T07:50:18.310Z,14.91
2023-05-20T07:52:55.924Z,14.97
2023-05-20T07:55:25.354Z,15.04
2023-05-20T07:57:53.838Z,15.19
2023-05-20T08:00:22.371Z,15.36
2023-05-20T08:02:50.887Z,15.48
2023-05-20T08:05:22.750Z,15.61
2023-05-20T08:07:51.239Z,15.75
2023-05-20T08:10:19.943Z,15.86
2023-05-20T08:12:51.776Z,16.00
2023-05-20T08:15:20.335Z,16.11
2023-05-20T08:17:48.715Z,16.19
2023-05-20T08:20:17.166Z,16.26
2023-05-20T08:22:47.438Z,16.40
2023-05-20T08:25:16.182Z,16.51
2023-05-20T08:27:44.818Z,16.58
2023-05-20T08:30:13.683Z,16.64
2023-05-20T08:32:42.119Z,16.67
2023-05-20T08:35:11.331Z,16.77
2023-05-20T08:37:39.701Z,16.80
2023-05-20T08:40:11.858Z,16.85
2023-05-20T08:42:44.359Z,16.88
2023-05-20T08:45:13.979Z,16.91
2023-05-20T08:47:43.990Z,16.92
2023-05-20T08:50:14.282Z,16.97
2023-05-20T08:52:45.373Z,17.07
2023-05-20T08:55:22.823Z,17.19
2023-05-20T08:57:51.634Z,17.27
2023-05-20T09:00:20.894Z,17.31
2023-05-20T09:02:49.490Z,17.32
2023-05-20T09:05:18.331Z,17.29
2023-05-20T09:07:46.925Z,17.31
2023-05-20T09:10:16.928Z,17.45
2023-05-20T09:12:46.930Z,17.63
2023-05-20T09:15:15.388Z,17.82
2023-05-20T09:17:43.844Z,18.01
2023-05-20T09:20:13.077Z,18.09
2023-05-20T09:22:41.635Z,18.16
2023-05-20T09:25:12.414Z,18.24
2023-05-20T09:27:42.612Z,18.36
2023-05-20T09:30:12.976Z,18.50
2023-05-20T09:32:41.803Z,18.65
2023-05-20T09:35:14.056Z,18.70
2023-05-20T09:37:44.248Z,18.73
2023-05-20T09:40:15.401Z,18.80
2023-05-20T09:42:54.028Z,18.88
2023-05-20T09:45:25.257Z,18.98
2023-05-20T09:47:56.462Z,19.05
2023-05-20T09:50:26.019Z,19.17
2023-05-20T09:52:55.717Z,19.34
2023-05-20T09:55:26.170Z,19.46
2023-05-20T09:57:57.325Z,19.51
2023-05-20T10:00:26.033Z,19.57
2023-05-20T10:02:55.053Z,19.68
2023-05-20T10:05:28.622Z,19.71
2023-05-20T10:08:33.164Z,19.85
2023-05-20T10:11:11.887Z,20.01
2023-05-20T10:13:53.575Z,20.16
2023-05-20T10:16:35.500Z,20.35
2023-05-20T10:19:21.526Z,20.41
2023-05-20T10:21:58.521Z,20.30
2023-05-20T10:24:38.062Z,20.30
2023-05-20T10:27:12.858Z,20.41
2023-05-20T10:32:28.619Z,20.72
2023-05-20T10:35:02.080Z,20.88
2023-05-20T10:37:33.111Z,21.02
2023-05-20T10:40:07.981Z,21.18
2023-05-20T10:42:36.410Z,21.30
2023-05-20T10:45:08.115Z,21.35
2023-05-20T10:47:36.869Z,21.43
2023-05-20T10:50:07.868Z,21.55
2023-05-20T10:52:38.368Z,21.66
2023-05-20T10:55:08.515Z,21.71
2023-05-20T10:57:37.713Z,21.68
2023-05-20T11:00:11.790Z,21.62
2023-05-20T11:02:42.082Z,21.60
2023-05-20T11:05:12.546Z,21.63
2023-05-20T11:07:41.273Z,21.66
2023-05-20T11:10:11.046Z,21.64
2023-05-20T11:12:40.717Z,21.67
2023-05-20T11:15:13.065Z,21.77
2023-05-20T11:17:53.670Z,21.87
2023-05-20T11:20:22.378Z,22.02
2023-05-20T11:22:51.394Z,22.16
2023-05-20T11:25:20.713Z,22.25
2023-05-20T11:27:59.378Z,22.35
2023-05-20T11:30:29.293Z,22.41
2023-05-20T11:32:59.482Z,22.44
2023-05-20T11:35:30.590Z,22.46
2023-05-20T11:38:02.667Z,22.43
2023-05-20T11:40:46.399Z,22.47
2023-05-20T11:43:19.290Z,22.59
2023-05-20T11:45:55.808Z,22.70
2023-05-20T11:48:25.268Z,22.85
2023-05-20T11:50:55.443Z,22.96
2023-05-20T11:53:25.410Z,23.11
2023-05-20T11:55:56.499Z,23.29
2023-05-20T11:58:26.315Z,23.44
2023-05-20T12:01:05.175Z,23.57
2023-05-20T12:03:42.352Z,23.74
2023-05-20T12:06:13.265Z,23.83
2023-05-20T12:08:41.655Z,23.85
2023-05-20T12:11:10.143Z,23.90
2023-05-20T12:13:38.988Z,24.00
2023-05-20T12:16:09.960Z,24.17
2023-05-20T12:18:38.790Z,24.34
2023-05-20T12:21:08.338Z,24.46
2023-05-20T12:23:36.741Z,24.63
2023-05-20T12:26:07.072Z,24.82
2023-05-20T12:28:35.480Z,24.90
2023-05-20T12:31:04.664Z,24.95
2023-05-20T12:33:34.471Z,25.01
2023-05-20T12:36:02.992Z,25.08
2023-05-20T12:38:31.467Z,24.99
2023-05-20T12:40:59.872Z,24.88
2023-05-20T12:43:28.246Z,24.82
2023-05-20T12:45:57.051Z,24.72
2023-05-20T12:48:25.486Z,24.61
2023-05-20T12:50:55.194Z,24.53
2023-05-20T12:53:23.646Z,24.46
2023-05-20T12:55:52.040Z,24.41
2023-05-20T12:58:20.729Z,24.36
2023-05-20T13:00:49.256Z,24.36
2023-05-20T13:03:18.071Z,24.37
2023-05-20T13:05:46.716Z,24.40
2023-05-20T13:08:16.446Z,24.41
2023-05-20T13:10:44.806Z,24.45
2023-05-20T13:13:13.920Z,24.53
2023-05-20T13:15:42.359Z,24.74
2023-05-20T13:18:11.142Z,24.89
2023-05-20T13:20:39.571Z,24.92
2023-05-20T13:23:10.764Z,24.89
2023-05-20T13:25:40.996Z,24.89
2023-05-20T13:28:10.331Z,24.83
2023-05-20T13:30:39.124Z,24.83
2023-05-20T13:33:09.920Z,24.80
2023-05-20T13:35:38.420Z,24.79
2023-05-20T13:38:10.185Z,24.81
2023-05-20T13:40:39.917Z,24.85
2023-05-20T13:43:09.699Z,24.88
2023-05-20T13:45:38.093Z,24.90
2023-05-20T13:48:09.481Z,24.94
2023-05-20T13:50:37.864Z,24.94
2023-05-20T13:53:07.472Z,24.95
2023-05-20T13:55:36.511Z,25.01
2023-05-20T13:58:11.904Z,25.07
2023-05-20T14:00:40.632Z,25.14
2023-05-20T14:03:10.555Z,25.25
2023-05-20T14:05:39.091Z,25.27
2023-05-20T14:08:09.837Z,25.27
2023-05-20T14:10:38.219Z,25.31
2023-05-20T14:13:08.963Z,25.47
2023-05-20T14:15:38.955Z,25.64
2023-05-20T14:18:09.813Z,25.85
2023-05-20T14:20:38.284Z,26.08
2023-05-20T14:23:06.674Z,26.30
2023-05-20T14:25:35.219Z,26.43
2023-05-20T14:28:03.925Z,26.55
2023-05-20T14:30:32.408Z,26.59
2023-05-20T14:33:02.271Z,26.64
2023-05-20T14:35:30.799Z,26.67
2023-05-20T14:37:59.235Z,26.74
2023-05-20T14:40:27.877Z,26.62
2023-05-20T14:42:56.320Z,26.47
2023-05-20T14:45:24.785Z,26.32
2023-05-20T14:47:59.445Z,26.12
2023-05-20T14:50:29.264Z,25.90
2023-05-20T14:52:57.663Z,25.77
2023-05-20T14:55:26.065Z,25.75
2023-05-20T14:57:54.465Z,25.79
2023-05-20T15:00:23.108Z,25.82
2023-05-20T15:02:51.610Z,25.85
2023-05-20T15:05:20.125Z,25.92
2023-05-20T15:07:49.941Z,26.03
2023-05-20T15:10:18.397Z,26.07
2023-05-20T15:12:46.829Z,26.18
2023-05-20T15:15:15.587Z,26.32
2023-05-20T15:17:44.035Z,26.49
2023-05-20T15:20:13.302Z,26.64
2023-05-20T15:22:43.968Z,26.69
2023-05-20T15:25:13.793Z,26.69
2023-05-20T15:27:42.448Z,26.76
2023-05-20T15:30:11.620Z,26.77
2023-05-20T15:32:41.311Z,26.66
2023-05-20T15:35:11.076Z,26.55
2023-05-20T15:37:39.457Z,26.45
2023-05-20T15:40:10.462Z,26.41
2023-05-20T15:42:40.961Z,26.42
2023-05-20T15:45:10.941Z,26.35
2023-05-20T15:47:40.840Z,26.30
2023-05-20T15:50:12.267Z,26.25
2023-05-20T15:52:40.887Z,26.22
2023-05-20T15:55:11.739Z,26.15
2023-05-20T15:57:41.505Z,26.08
2023-05-20T16:00:11.769Z,26.03
2023-05-20T16:02:41.398Z,25.93
2023-05-20T16:05:11.436Z,25.85
2023-05-20T16:07:42.541Z,25.81
2023-05-20T16:10:11.771Z,25.76
2023-05-20T16:12:41.597Z,25.77
2023-05-20T16:15:11.559Z,25.72
2023-05-20T16:17:40.517Z,25.67
2023-05-20T16:20:11.028Z,25.60
2023-05-20T16:22:39.421Z,25.52
2023-05-20T16:25:09.364Z,25.41
2023-05-20T16:27:38.248Z,25.30
2023-05-20T16:30:12.159Z,25.21
2023-05-20T16:32:41.079Z,25.12
2023-05-20T16:35:11.638Z,25.00
2023-05-20T16:37:40.529Z,24.92
2023-05-20T16:40:11.245Z,24.86
2023-05-20T16:42:40.610Z,24.78
2023-05-20T16:45:13.493Z,24.68
2023-05-20T16:47:41.965Z,24.60
2023-05-20T16:50:11.610Z,24.50
2023-05-20T16:52:40.015Z,24.40
2023-05-20T16:55:10.511Z,24.28
2023-05-20T16:57:39.229Z,24.20
2023-05-20T17:00:10.303Z,24.12
2023-05-20T17:02:40.036Z,24.06
2023-05-20T17:05:09.767Z,23.97
2023-05-20T17:07:39.394Z,23.89
2023-05-20T17:10:08.848Z,23.83
2023-05-20T17:12:44.513Z,23.76
2023-05-20T17:15:12.894Z,23.67
2023-05-20T17:17:42.697Z,23.57
2023-05-20T17:20:12.635Z,23.50
2023-05-20T17:22:41.117Z,23.44
2023-05-20T17:25:10.819Z,23.38
2023-05-20T17:27:43.504Z,23.33
2023-05-20T17:30:12.857Z,23.27
2023-05-20T17:32:42.709Z,23.21
2023-05-20T17:35:12.712Z,23.14
2023-05-20T17:37:41.395Z,23.09
2023-05-20T17:40:12.366Z,23.02
2023-05-20T17:42:40.842Z,22.97
2023-05-20T17:45:12.609Z,22.92
2023-05-20T17:47:42.479Z,22.87
2023-05-20T17:50:14.631Z,22.82
2023-05-20T17:52:44.927Z,22.73
2023-05-20T17:55:14.550Z,22.67
2023-05-20T17:57:43.004Z,22.61
2023-05-20T18:00:13.474Z,22.56
2023-05-20T18:02:47.227Z,22.51
2023-05-20T18:05:16.902Z,22.46
2023-05-20T18:07:45.580Z,22.40
2023-05-20T18:10:14.297Z,22.35
2023-05-20T18:12:43.023Z,22.31
2023-05-20T18:15:13.937Z,22.27
2023-05-20T18:17:44.824Z,22.21
2023-05-20T18:20:14.464Z,22.15
2023-05-20T18:22:45.334Z,22.10
2023-05-20T18:25:21.007Z,22.03
2023-05-20T18:27:49.424Z,21.99
2023-05-20T18:30:17.941Z,21.95
2023-05-20T18:32:47.661Z,21.90
2023-05-20T18:35:16.636Z,21.83
2023-05-20T18:37:45.026Z,21.78
2023-05-20T18:40:16.542Z,21.73
2023-05-20T18:42:45.109Z,21.67
2023-05-20T18:45:13.755Z,21.61
2023-05-20T18:47:42.304Z,21.57
2023-05-20T18:50:15.403Z,21.55
2023-05-20T18:52:53.828Z,21.50
2023-05-20T18:55:22.210Z,21.47
2023-05-20T18:57:50.818Z,21.43
2023-05-20T19:00:19.590Z,21.37
2023-05-20T19:02:48.031Z,21.32
2023-05-20T19:05:18.003Z,21.27
2023-05-20T19:07:46.786Z,21.23
2023-05-20T19:10:15.575Z,21.19
2023-05-20T19:12:44.628Z,21.17
2023-05-20T19:15:13.707Z,21.14
2023-05-20T19:17:42.304Z,21.07
2023-05-20T19:20:12.064Z,21.02
2023-05-20T19:22:42.063Z,20.97
2023-05-20T19:25:13.365Z,20.92
2023-05-20T19:27:42.033Z,20.89
2023-05-20T19:30:12.325Z,20.86
2023-05-20T19:32:41.015Z,20.83
2023-05-20T19:35:10.202Z,20.80
2023-05-20T19:37:38.608Z,20.77
2023-05-20T19:40:09.912Z,20.73
2023-05-20T19:42:38.340Z,20.71
2023-05-20T19:45:07.889Z,20.67
2023-05-20T19:47:37.512Z,20.63
2023-05-20T19:50:06.815Z,20.61
2023-05-20T19:52:35.387Z,20.59
2023-05-20T19:55:03.893Z,20.57
2023-05-20T19:57:33.663Z,20.56
2023-05-20T20:00:15.504Z,20.53
2023-05-20T20:02:43.951Z,20.51
2023-05-20T20:05:13.885Z,20.49
2023-05-20T20:07:42.448Z,20.46
2023-05-20T20:10:12.800Z,20.42
2023-05-20T20:12:42.662Z,20.39
2023-05-20T20:15:14.560Z,20.35
2023-05-20T20:17:45.446Z,20.33
2023-05-20T20:20:15.381Z,20.30
2023-05-20T20:22:43.824Z,20.26
2023-05-20T20:25:14.025Z,20.24
2023-05-20T20:27:44.893Z,20.20
2023-05-20T20:30:15.060Z,20.15
2023-05-20T20:32:43.591Z,20.05
2023-05-20T20:35:12.972Z,19.94
2023-05-20T20:37:41.433Z,19.86
2023-05-20T20:40:13.734Z,19.76
2023-05-20T20:42:54.695Z,19.67
2023-05-20T20:45:23.702Z,19.60
2023-05-20T20:47:54.797Z,19.53
2023-05-20T20:50:23.341Z,19.51
2023-05-20T20:52:51.755Z,19.50
2023-05-20T20:55:20.249Z,19.51
2023-05-20T20:58:02.677Z,19.49
2023-05-20T21:00:31.341Z,19.43
2023-05-20T21:02:59.973Z,19.30
2023-05-20T21:05:29.227Z,19.23
2023-05-20T21:07:59.369Z,19.18
2023-05-20T21:10:29.519Z,18.96
2023-05-20T21:13:00.384Z,18.76
2023-05-20T21:15:28.816Z,18.72
2023-05-20T21:17:57.196Z,18.69
2023-05-20T21:20:25.674Z,18.69
2023-05-20T21:22:54.093Z,18.63
2023-05-20T21:25:22.500Z,18.64
2023-05-20T21:27:50.876Z,18.65
2023-05-20T21:30:24.128Z,18.68
2023-05-20T21:32:52.651Z,18.65
2023-05-20T21:35:21.099Z,18.59
2023-05-20T21:37:49.950Z,18.55
2023-05-20T21:40:18.483Z,18.43
2023-05-20T21:42:48.850Z,18.29
2023-05-20T21:45:17.714Z,18.09
2023-05-20T21:47:47.501Z,18.10
2023-05-20T21:50:15.977Z,18.17
2023-05-20T21:52:44.489Z,18.23
2023-05-20T21:55:16.009Z,18.20
2023-05-20T21:57:44.407Z,18.19
2023-05-20T22:00:15.612Z,18.09
2023-05-20T22:02:44.351Z,18.05
2023-05-20T22:05:15.897Z,18.05
2023-05-20T22:07:45.525Z,18.04
2023-05-20T22:10:17.872Z,18.00
2023-05-20T22:12:47.533Z,18.01
2023-05-20T22:15:16.092Z,17.99
2023-05-20T22:17:44.764Z,17.91
2023-05-20T22:20:16.003Z,17.76
2023-05-20T22:22:45.367Z,17.67
2023-05-20T22:25:14.314Z,17.58
2023-05-20T22:27:43.485Z,17.63
2023-05-20T22:30:12.761Z,17.64
2023-05-20T22:32:42.356Z,17.57
2023-05-20T22:35:14.258Z,17.47
2023-05-20T22:37:44.411Z,17.41
2023-05-20T22:40:14.387Z,17.29
2023-05-20T22:42:42.805Z,17.16
2023-05-20T22:45:11.873Z,17.05
2023-05-20T22:47:40.517Z,17.01
2023-05-20T22:50:09.841Z,16.95
2023-05-20T22:52:49.567Z,16.97
2023-05-20T22:55:18.055Z,16.99
2023-05-20T22:57:46.536Z,17.02
2023-05-20T23:00:20.795Z,17.09
2023-05-20T23:02:52.441Z,17.13
2023-05-20T23:05:21.125Z,17.12
2023-05-20T23:07:52.974Z,17.13
2023-05-20T23:10:21.866Z,17.13
2023-05-20T23:12:50.254Z,17.02
2023-05-20T23:15:19.197Z,16.95
2023-05-20T23:17:49.436Z,16.96
2023-05-20T23:20:22.406Z,16.87
2023-05-20T23:22:52.406Z,16.83
2023-05-20T23:25:20.785Z,16.83
2023-05-20T23:27:49.317Z,16.89
2023-05-20T23:30:18.132Z,16.89
2023-05-20T23:32:47.387Z,16.90
2023-05-20T23:35:18.977Z,16.91
2023-05-20T23:37:48.356Z,16.91
2023-05-20T23:40:18.653Z,16.90
2023-05-20T23:42:47.113Z,16.89
2023-05-20T23:45:16.894Z,16.84
2023-05-20T23:47:45.824Z,16.76
2023-05-20T23:50:15.415Z,16.60
2023-05-20T23:52:53.853Z,16.30
2023-05-20T23:55:23.644Z,16.13
2023-05-20T23:57:52.000Z,16.06
